Baumholder Army Air Field ETEK

Flugplatz Daten

Name: Baumholder Army Air Field

Ident: ETEK

Lat: 49,65029907

Long: 7,300069809

Platzhöhe: 0 ft

IataCode:

City:

Metar

2021/10/20 12:56
ETEK 201256Z AUTO 22015G21KT 9999 -SHRA OVC013 14/12 A2986 RMK AO2 RAB46E48DZB48E54SHRAB54 SLP990 T01430122 $

Taf

Gewünschte Webcam nicht vorhanden? Dann fügen Sie eine hinzu. Sie wird dann so schnell wie möglich freigeschaltet
Url: Title: